Dallas Fort Worth International Airport
KDFW : now visible

Airfield :











YOU CAN JOIN US ON...

 
LOGIN :

Register | Disclaimer

   EN    FR    IT 

 









Legend :    VFR   Marginal VFR   IFR   Intensive IFR   Very Intensive IFR
Visi :
Ceiling :
>= 8 km
>= 3000ft
5 to 8 km
1000 to 3000 ft
1500m to 5 km
500 to 1000 ft
800 to 1500m
200 to 500 ft
< 800m
< 200 ft
Symbols :   Thunderstorms  Fog  Heavy snow  Heavy precipitations  Wind > 20 kt






- Airport Elevation : 607 ft
- IATA code : DFW


KDFW - Dallas Fort Worth International

CURRENT METAR :
  • 070053Z 34011KT 10SM SCT300 12/04 A3027 RMK AO2 SLP249 T01220039

EXPIRED METARs :
  • 062353Z 34008KT 10SM BKN300 13/03 A3025 RMK AO2 SLP241 T01330033 10178 20133 51016
  • 062253Z 34010KT 10SM BKN250 15/04 A3024 RMK AO2 SLP235 T01500039

TAF KDFW
Valid from the 07 at 00:00 until the 08 at 06:00 UTC


062332Z 0700/0806 35011KT P6SM BKN300
FM071600 10004KT P6SM SCT015 BKN250
FM071900 16007KT P6SM OVC250



MET'MAP, your aeronautical weather chart ! - Copyright ORBIFLY December 2007 - Disclaimer

ORBIFLY MET'MAP TEAM :

Programming & Development : Alexandra Zaïnal
Concept & original design : Baudouin d'Aumeries
Assistance for programming : Marc-Olivier Méhu
Technical & hardware support : Manuel Goepfert

Contact : metmap@orbifly.com




SOURCES & CREDITS :

   NOAA       Earth
Advisory